createdAt,value
2023-02-15T00:00:06.320Z,1023.33
2023-02-15T00:00:37.672Z,1023.43
2023-02-15T00:01:09.492Z,1023.43
2023-02-15T00:01:41.389Z,1023.53
2023-02-15T00:02:10.537Z,1023.33
2023-02-15T00:02:46.215Z,1023.33
2023-02-15T00:03:08.840Z,1023.33
2023-02-15T00:03:31.987Z,1023.33
2023-02-15T00:04:06.229Z,1023.33
2023-02-15T00:04:37.572Z,1023.43
2023-02-15T00:05:09.601Z,1023.43
2023-02-15T00:05:38.919Z,1023.43
2023-02-15T00:06:11.687Z,1023.33
2023-02-15T00:06:46.551Z,1023.33
2023-02-15T00:07:08.520Z,1023.33
2023-02-15T00:07:31.435Z,1023.33
2023-02-15T00:08:06.169Z,1023.33
2023-02-15T00:08:38.702Z,1023.33
2023-02-15T00:09:09.826Z,1023.33
2023-02-15T00:09:39.035Z,1023.43
2023-02-15T00:10:10.699Z,1023.23
2023-02-15T00:10:46.893Z,1023.23
2023-02-15T00:11:08.863Z,1023.64
2023-02-15T00:11:31.188Z,1023.64
2023-02-15T00:12:05.794Z,1023.64
2023-02-15T00:12:37.489Z,1023.23
2023-02-15T00:13:09.677Z,1023.23
2023-02-15T00:13:39.540Z,1023.13
2023-02-15T00:14:11.789Z,1023.23
2023-02-15T00:14:47.894Z,1023.23
2023-02-15T00:15:08.360Z,1023.53
2023-02-15T00:15:30.726Z,1023.53
2023-02-15T00:16:07.055Z,1023.53
2023-02-15T00:16:38.537Z,1023.23
2023-02-15T00:17:09.798Z,1023.23
2023-02-15T00:17:41.550Z,1023.23
2023-02-15T00:18:04.372Z,1023.33
2023-02-15T00:18:28.737Z,1023.33
2023-02-15T00:19:01.814Z,1023.33
2023-02-15T00:19:33.898Z,1023.23
2023-02-15T00:20:05.723Z,1023.23
2023-02-15T00:20:38.057Z,1023.33
2023-02-15T00:21:10.015Z,1023.33
2023-02-15T00:21:41.662Z,1023.53
2023-02-15T00:22:04.562Z,1023.13
2023-02-15T00:22:27.402Z,1023.13
2023-02-15T00:23:01.884Z,1023.13
2023-02-15T00:23:36.990Z,1023.23
2023-02-15T00:23:59.318Z,1023.23
2023-02-15T00:24:37.879Z,1023.13
2023-02-15T00:25:09.668Z,1023.13
2023-02-15T00:25:38.786Z,1023.13
2023-02-15T00:26:10.559Z,1023.23
2023-02-15T00:26:45.675Z,1023.23
2023-02-15T00:27:08.723Z,1023.23
2023-02-15T00:27:31.072Z,1023.23
2023-02-15T00:28:05.344Z,1023.23
2023-02-15T00:28:37.368Z,1023.03
2023-02-15T00:29:09.678Z,1023.03
2023-02-15T00:29:41.646Z,1022.82
2023-02-15T00:30:04.409Z,1023.23
2023-02-15T00:30:26.803Z,1023.23
2023-02-15T00:31:01.612Z,1023.23
2023-02-15T00:31:33.641Z,1023.13
2023-02-15T00:32:05.450Z,1023.13
2023-02-15T00:32:37.448Z,1023.13
2023-02-15T00:33:09.453Z,1023.13
2023-02-15T00:33:42.800Z,1023.13
2023-02-15T00:34:07.084Z,1023.13
2023-02-15T00:34:27.228Z,1023.13
2023-02-15T00:35:01.498Z,1023.13
2023-02-15T00:35:33.654Z,1023.23
2023-02-15T00:36:05.443Z,1023.23
2023-02-15T00:36:37.505Z,1023.23
2023-02-15T00:37:09.347Z,1023.23
2023-02-15T00:37:41.488Z,1023.13
2023-02-15T00:38:05.145Z,1023.23
2023-02-15T00:38:26.509Z,1023.23
2023-02-15T00:39:01.573Z,1023.23
2023-02-15T00:39:33.500Z,1023.13
2023-02-15T00:40:05.684Z,1023.13
2023-02-15T00:40:37.434Z,1023.13
2023-02-15T00:41:09.737Z,1023.13
2023-02-15T00:41:38.772Z,1022.92
2023-02-15T00:42:10.653Z,1023.43
2023-02-15T00:42:45.531Z,1023.43
2023-02-15T00:43:08.140Z,1022.92
2023-02-15T00:43:30.611Z,1022.92
2023-02-15T00:44:05.558Z,1022.92
2023-02-15T00:44:37.609Z,1023.03
2023-02-15T00:45:09.542Z,1023.03
2023-02-15T00:45:41.576Z,1023.03
2023-02-15T00:46:04.882Z,1023.13
2023-02-15T00:46:26.867Z,1023.13
2023-02-15T00:47:01.459Z,1023.13
2023-02-15T00:47:33.679Z,1023.03
2023-02-15T00:48:05.434Z,1023.03
2023-02-15T00:48:37.329Z,1023.13
2023-02-15T00:49:09.427Z,1023.13
2023-02-15T00:49:38.689Z,1023.13
2023-02-15T00:50:10.386Z,1023.03
2023-02-15T00:50:45.501Z,1023.03
2023-02-15T00:51:08.328Z,1023.03
2023-02-15T00:51:30.747Z,1023.03
2023-02-15T00:52:05.359Z,1023.03
2023-02-15T00:52:37.424Z,1022.82
2023-02-15T00:53:09.611Z,1022.82
2023-02-15T00:53:41.449Z,1023.03
2023-02-15T00:54:04.144Z,1022.92
2023-02-15T00:54:26.453Z,1022.92
2023-02-15T00:55:01.504Z,1022.92
2023-02-15T00:55:33.406Z,1022.92
2023-02-15T00:56:05.618Z,1022.92
2023-02-15T00:56:37.414Z,1023.03
2023-02-15T00:57:09.394Z,1023.03
2023-02-15T00:57:38.691Z,1022.92
2023-02-15T00:58:10.398Z,1022.92
2023-02-15T00:58:45.456Z,1022.92
2023-02-15T00:59:08.179Z,1023.03
2023-02-15T00:59:30.697Z,1023.03
2023-02-15T01:00:06.385Z,1023.03
2023-02-15T01:00:37.378Z,1023.03
2023-02-15T01:01:09.651Z,1023.03
2023-02-15T01:01:41.597Z,1023.03
2023-02-15T01:02:04.474Z,1023.03
2023-02-15T01:02:26.842Z,1023.03
2023-02-15T01:03:01.485Z,1023.03
2023-02-15T01:03:33.326Z,1022.92
2023-02-15T01:04:05.351Z,1022.92
2023-02-15T01:04:38.655Z,1023.13
2023-02-15T01:05:09.581Z,1023.13
2023-02-15T01:05:38.819Z,1023.03
2023-02-15T01:06:10.430Z,1022.92
2023-02-15T01:06:45.767Z,1022.92
2023-02-15T01:07:09.289Z,1023.03
2023-02-15T01:07:31.632Z,1023.03
2023-02-15T01:08:05.436Z,1023.03
2023-02-15T01:08:37.491Z,1023.23
2023-02-15T01:09:09.422Z,1023.23
2023-02-15T01:09:42.066Z,1023.23
2023-02-15T01:10:05.388Z,1023.23
2023-02-15T01:10:27.422Z,1023.23
2023-02-15T01:11:01.441Z,1023.23
2023-02-15T01:11:33.469Z,1022.72
2023-02-15T01:12:05.473Z,1022.72
2023-02-15T01:12:37.458Z,1022.92
2023-02-15T01:13:09.465Z,1022.92
2023-02-15T01:13:38.904Z,1023.23
2023-02-15T01:14:10.531Z,1022.72
2023-02-15T01:14:45.442Z,1022.72
2023-02-15T01:15:08.353Z,1022.92
2023-02-15T01:15:30.578Z,1022.92
2023-02-15T01:16:05.775Z,1022.92
2023-02-15T01:16:37.468Z,1022.82
2023-02-15T01:17:09.567Z,1022.82
2023-02-15T01:17:41.419Z,1023.13
2023-02-15T01:18:04.131Z,1023.03
2023-02-15T01:18:28.096Z,1023.03
2023-02-15T01:19:01.594Z,1023.03
2023-02-15T01:19:33.576Z,1022.92
2023-02-15T01:20:05.744Z,1022.92
2023-02-15T01:20:37.906Z,1022.92
2023-02-15T01:21:09.526Z,1022.92
2023-02-15T01:21:41.763Z,1022.92
2023-02-15T01:22:04.702Z,1022.82
2023-02-15T01:22:26.976Z,1022.82
2023-02-15T01:23:01.548Z,1022.82
2023-02-15T01:23:33.737Z,1022.92
2023-02-15T01:24:05.339Z,1022.92
2023-02-15T01:24:37.487Z,1022.82
2023-02-15T01:25:09.393Z,1022.82
2023-02-15T01:25:41.754Z,1022.82
2023-02-15T01:26:04.560Z,1022.82
2023-02-15T01:26:26.840Z,1022.82
2023-02-15T01:27:01.333Z,1022.82
2023-02-15T01:27:33.494Z,1022.82
2023-02-15T01:28:05.643Z,1022.82
2023-02-15T01:28:40.051Z,1022.82
2023-02-15T01:29:09.409Z,1022.82
2023-02-15T01:29:38.673Z,1022.72
2023-02-15T01:30:10.582Z,1022.82
2023-02-15T01:30:45.609Z,1022.82
2023-02-15T01:31:08.350Z,1022.72
2023-02-15T01:31:30.556Z,1022.72
2023-02-15T01:32:05.716Z,1022.72
2023-02-15T01:32:37.599Z,1022.92
2023-02-15T01:33:09.381Z,1022.92
2023-02-15T01:33:41.554Z,1022.82
2023-02-15T01:34:10.473Z,1022.82
2023-02-15T01:34:45.438Z,1022.82
2023-02-15T01:35:08.034Z,1022.62
2023-02-15T01:35:30.475Z,1022.62
2023-02-15T01:36:05.463Z,1022.62
2023-02-15T01:36:37.526Z,1022.72
2023-02-15T01:37:09.433Z,1022.72
2023-02-15T01:37:38.741Z,1022.62
2023-02-15T01:38:10.593Z,1022.62
2023-02-15T01:38:45.421Z,1022.62
2023-02-15T01:39:08.707Z,1022.82
2023-02-15T01:39:31.063Z,1022.82
2023-02-15T01:40:05.843Z,1022.82
2023-02-15T01:40:37.360Z,1022.72
2023-02-15T01:41:09.421Z,1022.72
2023-02-15T01:41:38.832Z,1022.72
2023-02-15T01:42:10.408Z,1022.62
2023-02-15T01:42:45.640Z,1022.62
2023-02-15T01:43:08.662Z,1022.72
2023-02-15T01:43:30.999Z,1022.72
2023-02-15T01:44:05.415Z,1022.72
2023-02-15T01:44:37.560Z,1022.82
2023-02-15T01:45:10.209Z,1022.82
2023-02-15T01:45:41.451Z,1022.72
2023-02-15T01:46:04.911Z,1022.82
2023-02-15T01:46:26.908Z,1022.82
2023-02-15T01:47:01.379Z,1022.82
2023-02-15T01:47:33.694Z,1022.82
2023-02-15T01:48:05.749Z,1022.82
2023-02-15T01:48:37.547Z,1022.72
2023-02-15T01:49:09.772Z,1022.72
2023-02-15T01:49:41.697Z,1022.72
2023-02-15T01:50:04.159Z,1022.52
2023-02-15T01:50:26.517Z,1022.52
2023-02-15T01:51:02.040Z,1022.52
2023-02-15T01:51:33.310Z,1022.72
2023-02-15T01:52:05.506Z,1022.72
2023-02-15T01:52:37.382Z,1022.72
2023-02-15T01:53:09.479Z,1022.72
2023-02-15T01:53:38.805Z,1022.72
2023-02-15T01:54:10.431Z,1022.52
2023-02-15T01:54:45.440Z,1022.52
2023-02-15T01:55:09.335Z,1022.52
2023-02-15T01:55:31.985Z,1022.52
2023-02-15T01:56:07.431Z,1022.52
2023-02-15T01:56:37.579Z,1022.52
2023-02-15T01:57:09.471Z,1022.52
2023-02-15T01:57:38.917Z,1022.72
2023-02-15T01:58:10.400Z,1022.62
2023-02-15T01:58:45.472Z,1022.62
2023-02-15T01:59:09.135Z,1022.82
2023-02-15T01:59:30.559Z,1022.82
2023-02-15T02:00:05.780Z,1022.82
2023-02-15T02:00:42.232Z,1022.72
2023-02-15T02:01:09.710Z,1022.72
2023-02-15T02:01:44.278Z,1022.72
2023-02-15T02:02:10.530Z,1022.62
2023-02-15T02:02:45.609Z,1022.62
2023-02-15T02:03:08.483Z,1022.72
2023-02-15T02:03:31.244Z,1022.72
2023-02-15T02:04:05.537Z,1022.72
2023-02-15T02:04:37.324Z,1022.62
2023-02-15T02:05:09.464Z,1022.62
2023-02-15T02:05:38.703Z,1022.72
2023-02-15T02:06:10.927Z,1022.52
2023-02-15T02:06:45.522Z,1022.52
2023-02-15T02:07:10.358Z,1022.72
2023-02-15T02:07:31.679Z,1022.72
2023-02-15T02:08:10.840Z,1022.72
2023-02-15T02:08:37.480Z,1022.72
2023-02-15T02:09:09.574Z,1022.72
2023-02-15T02:09:38.837Z,1022.42
2023-02-15T02:10:10.735Z,1022.52
2023-02-15T02:10:45.866Z,1022.52
2023-02-15T02:11:09.046Z,1022.62
2023-02-15T02:11:31.187Z,1022.62
2023-02-15T02:12:05.381Z,1022.62
2023-02-15T02:12:37.515Z,1022.42
2023-02-15T02:13:09.481Z,1022.42
2023-02-15T02:13:41.497Z,1022.42
2023-02-15T02:14:07.009Z,1022.52
2023-02-15T02:14:27.197Z,1022.52
2023-02-15T02:15:01.895Z,1022.52
2023-02-15T02:15:33.540Z,1022.52
2023-02-15T02:16:05.728Z,1022.52
2023-02-15T02:16:37.438Z,1022.62
2023-02-15T02:17:09.498Z,1022.62
2023-02-15T02:20:38.134Z,1022.62
2023-02-15T02:20:44.687Z,1022.32
2023-02-15T02:21:07.204Z,1022.32
2023-02-15T02:21:38.734Z,1022.62
2023-02-15T02:22:10.522Z,1022.52
2023-02-15T02:22:45.691Z,1022.52
2023-02-15T02:23:08.875Z,1022.32
2023-02-15T02:23:31.383Z,1022.32
2023-02-15T02:24:06.706Z,1022.32
2023-02-15T02:24:37.400Z,1022.42
2023-02-15T02:25:10.355Z,1022.42
2023-02-15T02:25:38.706Z,1022.52
2023-02-15T02:26:11.939Z,1022.42
2023-02-15T02:26:45.666Z,1022.42
2023-02-15T02:27:08.269Z,1022.32
2023-02-15T02:27:32.227Z,1022.32
2023-02-15T02:28:07.417Z,1022.32
2023-02-15T02:28:37.471Z,1022.42
2023-02-15T02:29:09.504Z,1022.42
2023-02-15T02:29:41.465Z,1022.42
2023-02-15T02:30:10.697Z,1022.32
2023-02-15T02:30:27.432Z,1022.32
2023-02-15T02:31:01.528Z,1022.32
2023-02-15T02:31:33.553Z,1022.21
2023-02-15T02:32:08.055Z,1022.21
2023-02-15T02:32:37.533Z,1022.32
2023-02-15T02:33:09.493Z,1022.32
2023-02-15T02:33:41.345Z,1022.52
2023-02-15T02:34:04.168Z,1022.32
2023-02-15T02:34:26.496Z,1022.32
2023-02-15T02:35:01.614Z,1022.32
2023-02-15T02:35:33.648Z,1022.32
2023-02-15T02:36:05.546Z,1022.32
2023-02-15T02:36:39.860Z,1022.32
2023-02-15T02:37:09.557Z,1022.32
2023-02-15T02:37:41.464Z,1022.21
2023-02-15T02:38:04.474Z,1022.32
2023-02-15T02:38:26.688Z,1022.32
2023-02-15T02:39:01.578Z,1022.32
2023-02-15T02:39:33.377Z,1022.32
2023-02-15T02:40:05.489Z,1022.32
2023-02-15T02:40:37.685Z,1022.21
2023-02-15T02:41:09.967Z,1022.21
2023-02-15T02:41:41.439Z,1022.21
2023-02-15T02:42:04.208Z,1022.42
2023-02-15T02:42:26.614Z,1022.42
2023-02-15T02:43:01.477Z,1022.42
2023-02-15T02:43:33.547Z,1022.11
2023-02-15T02:44:05.364Z,1022.11
2023-02-15T02:44:31.841Z,1022.21
2023-02-15T02:45:10.668Z,1022.21
2023-02-15T02:45:41.708Z,1022.11
2023-02-15T02:46:04.592Z,1022.11
2023-02-15T02:46:29.212Z,1022.11
2023-02-15T02:47:01.404Z,1022.11
2023-02-15T02:47:34.616Z,1022.21
2023-02-15T02:48:06.602Z,1022.21
2023-02-15T02:48:38.129Z,1021.91
2023-02-15T02:49:10.749Z,1021.91
2023-02-15T02:49:43.130Z,1022.01
2023-02-15T02:50:04.416Z,1022.21
2023-02-15T02:50:27.686Z,1022.21
2023-02-15T02:51:01.986Z,1022.21
2023-02-15T02:51:33.553Z,1022.11
2023-02-15T02:52:05.483Z,1022.11
2023-02-15T02:52:37.306Z,1022.01
2023-02-15T02:53:11.247Z,1022.01
2023-02-15T02:53:41.441Z,1022.32
2023-02-15T02:54:04.254Z,1022.11
2023-02-15T02:54:26.949Z,1022.11
2023-02-15T02:55:01.536Z,1022.11
2023-02-15T02:55:33.775Z,1022.11
2023-02-15T02:56:13.776Z,1022.01
2023-02-15T02:56:37.044Z,1022.01
2023-02-15T02:57:16.882Z,1021.91
2023-02-15T02:57:39.378Z,1021.91
2023-02-15T02:58:14.290Z,1022.01
2023-02-15T02:58:45.523Z,1022.01
2023-02-15T02:59:08.269Z,1022.01
2023-02-15T02:59:30.655Z,1022.01
2023-02-15T03:00:08.321Z,1022.01
2023-02-15T03:00:38.077Z,1022.11
2023-02-15T03:01:09.603Z,1022.11
2023-02-15T03:01:47.366Z,1022.11
2023-02-15T03:02:04.791Z,1021.91
2023-02-15T03:02:27.318Z,1021.91
2023-02-15T03:03:01.713Z,1021.91
2023-02-15T03:03:34.582Z,1022.01
2023-02-15T03:04:05.507Z,1022.01
2023-02-15T03:04:39.598Z,1021.91
2023-02-15T03:05:09.562Z,1021.91
2023-02-15T03:05:38.725Z,1022.21
2023-02-15T03:06:12.985Z,1022.21
2023-02-15T03:06:45.660Z,1022.21
2023-02-15T03:07:08.191Z,1022.11
2023-02-15T03:07:30.561Z,1022.11
2023-02-15T03:08:05.712Z,1022.11
2023-02-15T03:08:37.555Z,1022.11
2023-02-15T03:09:09.837Z,1022.11
2023-02-15T03:09:41.342Z,1022.01
2023-02-15T03:10:04.680Z,1022.11
2023-02-15T03:10:27.034Z,1022.11
2023-02-15T03:11:04.754Z,1022.01
2023-02-15T03:11:33.410Z,1022.01
2023-02-15T03:12:05.580Z,1022.01
2023-02-15T03:12:39.047Z,1022.21
2023-02-15T03:13:09.678Z,1022.21
2023-02-15T03:13:41.471Z,1022.11
2023-02-15T03:14:04.507Z,1022.11
2023-02-15T03:14:27.026Z,1022.11
2023-02-15T03:15:02.059Z,1022.11
2023-02-15T03:15:33.674Z,1021.74
2023-02-15T03:16:05.518Z,1021.74
2023-02-15T03:16:37.459Z,1022.01
2023-02-15T03:17:09.501Z,1022.01
2023-02-15T03:17:41.589Z,1022.11
2023-02-15T03:18:05.858Z,1022.01
2023-02-15T03:18:29.206Z,1022.01
2023-02-15T03:19:01.655Z,1022.01
2023-02-15T03:19:33.641Z,1021.91
2023-02-15T03:20:05.465Z,1021.91
2023-02-15T03:20:37.533Z,1022.11
2023-02-15T03:21:09.538Z,1022.11
2023-02-15T03:21:42.681Z,1022.01
2023-02-15T03:22:04.643Z,1021.91
2023-02-15T03:22:26.897Z,1021.91
2023-02-15T03:23:03.026Z,1021.91
2023-02-15T03:23:33.468Z,1022.01
2023-02-15T03:24:05.776Z,1022.01
2023-02-15T03:24:37.487Z,1022.01
2023-02-15T03:25:11.565Z,1021.84
2023-02-15T03:25:46.933Z,1021.84
2023-02-15T03:26:10.516Z,1022.01
2023-02-15T03:26:45.498Z,1022.01
2023-02-15T03:27:14.133Z,1022.01
2023-02-15T03:27:32.038Z,1022.01
2023-02-15T03:28:05.536Z,1022.01
2023-02-15T03:28:37.411Z,1021.91
2023-02-15T03:29:09.637Z,1021.91
2023-02-15T03:29:41.604Z,1021.91
2023-02-15T03:30:07.764Z,1022.11
2023-02-15T03:30:46.528Z,1022.11
2023-02-15T03:31:08.491Z,1021.64
2023-02-15T03:31:32.524Z,1021.64
2023-02-15T03:32:05.584Z,1021.64
2023-02-15T03:32:44.409Z,1021.91
2023-02-15T03:33:07.072Z,1021.91
2023-02-15T03:33:38.740Z,1022.21
2023-02-15T03:34:10.436Z,1022.01
2023-02-15T03:34:45.554Z,1022.01
2023-02-15T03:35:08.450Z,1021.91
2023-02-15T03:35:30.770Z,1021.91
2023-02-15T03:36:05.558Z,1021.91
2023-02-15T03:36:37.518Z,1022.01
2023-02-15T03:37:09.605Z,1022.01
2023-02-15T03:37:38.761Z,1021.84
2023-02-15T03:38:10.440Z,1022.11
2023-02-15T03:38:45.767Z,1022.11
2023-02-15T03:39:08.756Z,1022.11
2023-02-15T03:39:31.145Z,1022.11
2023-02-15T03:40:05.542Z,1022.11
2023-02-15T03:40:37.518Z,1022.01
2023-02-15T03:41:09.557Z,1022.01
2023-02-15T03:41:38.737Z,1022.01
2023-02-15T03:42:10.505Z,1021.91
2023-02-15T03:42:45.577Z,1021.91
2023-02-15T03:43:09.317Z,1021.84
2023-02-15T03:43:31.494Z,1021.84
2023-02-15T03:44:05.871Z,1021.84
2023-02-15T03:44:37.540Z,1022.01
2023-02-15T03:45:09.611Z,1022.01
2023-02-15T03:45:41.400Z,1022.01
2023-02-15T03:46:04.553Z,1021.91
2023-02-15T03:46:26.866Z,1021.91
2023-02-15T03:47:01.522Z,1021.91
2023-02-15T03:47:33.741Z,1022.01
2023-02-15T03:48:05.404Z,1022.01
2023-02-15T03:48:38.784Z,1021.84
2023-02-15T03:49:09.529Z,1021.84
2023-02-15T03:49:38.997Z,1021.84
2023-02-15T03:50:10.398Z,1021.91
2023-02-15T03:50:45.599Z,1021.91
2023-02-15T03:51:09.382Z,1021.74
2023-02-15T03:51:31.383Z,1021.74
2023-02-15T03:52:05.369Z,1021.74
2023-02-15T03:52:37.438Z,1021.84
2023-02-15T03:53:09.654Z,1021.84
2023-02-15T03:53:41.414Z,1021.91
2023-02-15T03:54:04.535Z,1021.91
2023-02-15T03:54:26.858Z,1021.91
2023-02-15T03:55:01.585Z,1021.91
2023-02-15T03:55:33.508Z,1021.91
2023-02-15T03:56:05.535Z,1021.91
2023-02-15T03:56:37.481Z,1021.84
2023-02-15T03:57:09.698Z,1021.84
2023-02-15T03:57:38.841Z,1021.64
2023-02-15T03:58:10.494Z,1021.91
2023-02-15T03:58:45.456Z,1021.91
2023-02-15T03:59:08.075Z,1021.84
2023-02-15T03:59:30.496Z,1021.84
2023-02-15T04:00:06.047Z,1021.84
2023-02-15T04:00:37.531Z,1021.74
2023-02-15T04:01:10.147Z,1021.74
2023-02-15T04:01:41.721Z,1021.91
2023-02-15T04:02:06.231Z,1021.84
2023-02-15T04:02:28.663Z,1021.84
2023-02-15T04:03:01.473Z,1021.84
2023-02-15T04:03:33.547Z,1021.84
2023-02-15T04:04:06.027Z,1021.84
2023-02-15T04:04:37.571Z,1021.84
2023-02-15T04:05:09.538Z,1021.84
2023-02-15T04:05:38.854Z,1021.64
2023-02-15T04:06:14.983Z,1021.84
2023-02-15T04:06:45.466Z,1021.84
2023-02-15T04:07:08.499Z,1021.74
2023-02-15T04:07:31.029Z,1021.74
2023-02-15T04:08:05.560Z,1021.74
2023-02-15T04:08:39.149Z,1021.84
2023-02-15T04:09:09.655Z,1021.84
2023-02-15T04:09:38.775Z,1021.64
2023-02-15T04:10:10.712Z,1021.84
2023-02-15T04:10:45.824Z,1021.84
2023-02-15T04:11:08.793Z,1021.91
2023-02-15T04:11:30.604Z,1021.91
2023-02-15T04:12:05.621Z,1021.91
2023-02-15T04:12:37.661Z,1022.01
2023-02-15T04:13:09.669Z,1022.01
2023-02-15T04:13:41.750Z,1021.74
2023-02-15T04:14:04.668Z,1021.74
2023-02-15T04:14:26.822Z,1021.74
2023-02-15T04:15:02.580Z,1021.74
2023-02-15T04:15:33.444Z,1021.84
2023-02-15T04:16:07.958Z,1021.84
2023-02-15T04:16:37.606Z,1021.74
2023-02-15T04:17:09.589Z,1021.74
2023-02-15T04:17:38.703Z,1021.64
2023-02-15T04:18:10.503Z,1021.84
2023-02-15T04:18:45.790Z,1021.84
2023-02-15T04:19:08.227Z,1021.64
2023-02-15T04:19:30.858Z,1021.64
2023-02-15T04:20:05.472Z,1021.64
2023-02-15T04:20:31.526Z,1021.74
2023-02-15T04:21:09.948Z,1021.74
2023-02-15T04:21:39.945Z,1021.64
2023-02-15T04:22:10.499Z,1021.74
2023-02-15T04:22:45.948Z,1021.74
2023-02-15T04:23:08.455Z,1021.54
2023-02-15T04:23:31.236Z,1021.54
2023-02-15T04:24:06.143Z,1021.54
2023-02-15T04:24:39.734Z,1021.64
2023-02-15T04:25:09.927Z,1021.64
2023-02-15T04:25:41.691Z,1021.74
2023-02-15T04:26:10.899Z,1021.74
2023-02-15T04:26:46.335Z,1021.74
2023-02-15T04:27:08.902Z,1021.54
2023-02-15T04:27:31.321Z,1021.54
2023-02-15T04:28:13.816Z,1021.64
2023-02-15T04:28:36.516Z,1021.64
2023-02-15T04:29:10.822Z,1021.64
2023-02-15T04:29:41.370Z,1021.54
2023-02-15T04:30:13.763Z,1021.91
2023-02-15T04:30:45.802Z,1021.91
2023-02-15T04:31:08.297Z,1021.84
2023-02-15T04:31:35.851Z,1021.84
2023-02-15T04:32:06.807Z,1021.84
2023-02-15T04:32:37.764Z,1021.64
2023-02-15T04:33:09.568Z,1021.64
2023-02-15T04:33:39.837Z,1021.54
2023-02-15T04:34:10.916Z,1021.74
2023-02-15T04:34:45.800Z,1021.74
2023-02-15T04:35:08.400Z,1021.74
2023-02-15T04:35:30.706Z,1021.74
2023-02-15T04:36:05.661Z,1021.74
2023-02-15T04:36:37.726Z,1021.74
2023-02-15T04:37:09.564Z,1021.74
2023-02-15T04:37:38.836Z,1021.84
2023-02-15T04:38:10.637Z,1021.84
2023-02-15T04:38:45.645Z,1021.84
2023-02-15T04:39:08.176Z,1021.64
2023-02-15T04:39:30.913Z,1021.64
2023-02-15T04:40:05.827Z,1021.64
2023-02-15T04:40:38.581Z,1021.64
2023-02-15T04:41:09.544Z,1021.64
2023-02-15T04:41:39.910Z,1021.54
2023-02-15T04:42:10.535Z,1021.54
2023-02-15T04:42:46.012Z,1021.54
2023-02-15T04:43:09.163Z,1021.64
2023-02-15T04:43:31.048Z,1021.64
2023-02-15T04:44:05.527Z,1021.64
2023-02-15T04:44:38.704Z,1021.54
2023-02-15T04:45:10.095Z,1021.54
2023-02-15T04:45:41.596Z,1021.54
2023-02-15T04:46:04.729Z,1021.64
2023-02-15T04:46:27.166Z,1021.64
2023-02-15T04:47:02.566Z,1021.64
2023-02-15T04:47:33.797Z,1021.54
2023-02-15T04:48:07.157Z,1021.54
2023-02-15T04:48:37.861Z,1021.64
2023-02-15T04:49:09.883Z,1021.64
2023-02-15T04:49:40.597Z,1021.43
2023-02-15T04:50:10.480Z,1021.54
2023-02-15T04:50:45.666Z,1021.54
2023-02-15T04:51:08.274Z,1021.64
2023-02-15T04:51:30.888Z,1021.64
2023-02-15T04:52:05.920Z,1021.64
2023-02-15T04:52:37.543Z,1021.54
2023-02-15T04:53:09.535Z,1021.54
2023-02-15T04:53:38.988Z,1021.54
2023-02-15T04:54:10.561Z,1021.64
2023-02-15T04:54:45.620Z,1021.64
2023-02-15T04:55:08.227Z,1021.64
2023-02-15T04:55:32.113Z,1021.64
2023-02-15T04:56:06.644Z,1021.64
2023-02-15T04:56:38.376Z,1021.43
2023-02-15T04:57:09.877Z,1021.43
2023-02-15T04:57:42.143Z,1021.54
2023-02-15T04:58:04.346Z,1021.64
2023-02-15T04:58:28.086Z,1021.64
2023-02-15T04:59:02.041Z,1021.64
2023-02-15T04:59:33.695Z,1021.54
2023-02-15T05:00:06.744Z,1021.54
2023-02-15T05:00:37.409Z,1021.54
2023-02-15T05:01:10.531Z,1021.54
2023-02-15T05:01:42.105Z,1021.43
2023-02-15T05:02:04.224Z,1021.54
2023-02-15T05:02:28.623Z,1021.54
2023-02-15T05:03:07.344Z,1021.54
2023-02-15T05:03:34.492Z,1021.54
2023-02-15T05:04:05.693Z,1021.54
2023-02-15T05:04:37.530Z,1021.54
2023-02-15T05:05:09.591Z,1021.54
2023-02-15T05:05:38.978Z,1021.64
2023-02-15T05:06:12.597Z,1021.33
2023-02-15T05:06:51.944Z,1021.33
2023-02-15T05:07:09.029Z,1021.54
2023-02-15T05:07:33.710Z,1021.54
2023-02-15T05:08:06.281Z,1021.54
2023-02-15T05:08:37.670Z,1021.43
2023-02-15T05:09:10.945Z,1021.43
2023-02-15T05:09:42.043Z,1021.43
2023-02-15T05:10:05.062Z,1021.33
2023-02-15T05:10:30.197Z,1021.33
2023-02-15T05:11:01.622Z,1021.33
2023-02-15T05:11:34.987Z,1021.43
2023-02-15T05:12:05.532Z,1021.43
2023-02-15T05:12:37.621Z,1021.54
2023-02-15T05:13:12.227Z,1021.54
2023-02-15T05:13:42.272Z,1021.54
2023-02-15T05:14:06.518Z,1021.43
2023-02-15T05:14:30.673Z,1021.43
2023-02-15T05:15:03.364Z,1021.43
2023-02-15T05:15:33.755Z,1021.33
2023-02-15T05:16:06.462Z,1021.33
2023-02-15T05:16:37.792Z,1021.43
2023-02-15T05:17:10.425Z,1021.43
2023-02-15T05:17:41.527Z,1021.23
2023-02-15T05:18:04.232Z,1021.33
2023-02-15T05:18:26.654Z,1021.33
2023-02-15T05:19:06.055Z,1021.33
2023-02-15T05:19:34.232Z,1021.54
2023-02-15T05:20:05.673Z,1021.54
2023-02-15T05:20:38.580Z,1021.33
2023-02-15T05:21:12.914Z,1021.23
2023-02-15T05:21:35.621Z,1021.23
2023-02-15T05:22:10.360Z,1021.54
2023-02-15T05:22:46.195Z,1021.54
2023-02-15T05:23:08.933Z,1021.33
2023-02-15T05:23:31.994Z,1021.33
2023-02-15T05:24:05.474Z,1021.33
2023-02-15T05:24:37.530Z,1021.43
2023-02-15T05:25:09.648Z,1021.43
2023-02-15T05:25:43.987Z,1021.23
2023-02-15T05:26:05.084Z,1021.43
2023-02-15T05:26:27.494Z,1021.43
2023-02-15T05:27:01.593Z,1021.43
2023-02-15T05:27:33.853Z,1021.54
2023-02-15T05:28:05.558Z,1021.54
2023-02-15T05:28:37.519Z,1021.43
2023-02-15T05:29:10.113Z,1021.43
2023-02-15T05:29:41.460Z,1021.54
2023-02-15T05:30:09.618Z,1021.43
2023-02-15T05:30:29.430Z,1021.43
2023-02-15T05:31:01.862Z,1021.43
2023-02-15T05:31:34.079Z,1021.54
2023-02-15T05:32:05.694Z,1021.54
2023-02-15T05:32:37.743Z,1021.33
2023-02-15T05:33:09.682Z,1021.33
2023-02-15T05:33:44.049Z,1021.33
2023-02-15T05:34:04.321Z,1021.33
2023-02-15T05:34:28.252Z,1021.33
2023-02-15T05:35:01.597Z,1021.33
2023-02-15T05:35:34.340Z,1021.13
2023-02-15T05:36:05.940Z,1021.13
2023-02-15T05:36:37.479Z,1021.33
2023-02-15T05:37:09.684Z,1021.33
2023-02-15T05:37:41.617Z,1021.23
2023-02-15T05:38:04.645Z,1021.23
2023-02-15T05:38:27.078Z,1021.23
2023-02-15T05:39:04.172Z,1021.23
2023-02-15T05:39:34.935Z,1021.33
2023-02-15T05:40:05.493Z,1021.33
2023-02-15T05:40:38.214Z,1021.33
2023-02-15T05:41:09.686Z,1021.33
2023-02-15T05:41:38.722Z,1021.33
2023-02-15T05:42:10.517Z,1021.43
2023-02-15T05:42:45.656Z,1021.43
2023-02-15T05:43:08.173Z,1021.33
2023-02-15T05:43:30.583Z,1021.33
2023-02-15T05:44:05.596Z,1021.33
2023-02-15T05:44:37.554Z,1021.43
2023-02-15T05:45:09.715Z,1021.43
2023-02-15T05:45:38.898Z,1021.33
2023-02-15T05:46:10.566Z,1021.23
2023-02-15T05:46:45.610Z,1021.23
2023-02-15T05:47:08.387Z,1021.03
2023-02-15T05:47:30.853Z,1021.03
2023-02-15T05:48:05.587Z,1021.03
2023-02-15T05:48:41.725Z,1021.23
2023-02-15T05:49:09.747Z,1021.23
2023-02-15T05:49:46.967Z,1021.33
2023-02-15T05:50:04.398Z,1021.23
2023-02-15T05:50:26.675Z,1021.23
2023-02-15T05:51:04.222Z,1021.23
2023-02-15T05:51:37.911Z,1021.13
2023-02-15T05:52:06.975Z,1021.13
2023-02-15T05:52:37.614Z,1021.64
2023-02-15T05:53:09.674Z,1021.64
2023-02-15T05:53:39.055Z,1021.43
2023-02-15T05:54:10.652Z,1021.13
2023-02-15T05:54:45.779Z,1021.13
2023-02-15T05:55:08.372Z,1021.13
2023-02-15T05:55:32.421Z,1021.13
2023-02-15T05:56:05.916Z,1021.13
2023-02-15T05:56:38.656Z,1021.13
2023-02-15T05:57:09.530Z,1021.13
2023-02-15T05:57:38.903Z,1021.23
2023-02-15T05:58:10.467Z,1021.13
2023-02-15T05:58:47.412Z,1021.13
2023-02-15T05:59:08.479Z,1021.03
2023-02-15T05:59:31.095Z,1021.03
2023-02-15T06:00:07.838Z,1021.13
2023-02-15T06:00:40.398Z,1021.13
2023-02-15T06:01:10.433Z,1021.13
2023-02-15T06:01:42.197Z,1021.33
2023-02-15T06:02:04.423Z,1021.33
2023-02-15T06:02:29.141Z,1021.33
2023-02-15T06:03:01.582Z,1021.33
2023-02-15T06:03:33.728Z,1021.23
2023-02-15T06:04:05.849Z,1021.23
2023-02-15T06:04:39.218Z,1021.23
2023-02-15T06:05:09.643Z,1021.23